Погода Юржишкина неделю

Минская область, Белоруссия

25 - 31 мая
  • 25мая
    Сегодня
    +11°
    +25°
    Облачно с прояснениями
    ВремяПогодаТемператураВлажностьДавлениеВетер, м/сВероятность осадков
    00:00Ясно и безоблачно+16°C70 %752 мм4.3 м/с2 %
    03:00Облачно с прояснениями+14°C66 %752 мм4.8 м/с2 %
    06:00Облачно с прояснениями+13°C65 %752 мм4.7 м/с2 %
    09:00Облачно с прояснениями+19°C63 %752 мм4.5 м/с2 %
    12:00Облачно с прояснениями+22°C53 %752 мм4.3 м/с2 %
    15:00Облачно с прояснениями+24°C41 %751 мм5.5 м/с12 %
    18:00Облачно с прояснениями+25°C42 %751 мм4.9 м/с14 %
    21:00Облачно с прояснениями+19°C73 %751 мм1.2 м/с8 %
  • 26мая
    Воскресенье
    +13°
    +25°
    Ясно и безоблачно
    ВремяПогодаТемператураВлажностьДавлениеВетер, м/сВероятность осадков
    00:00Облачно с прояснениями+16°C67 %751 мм2.8 м/с2 %
    03:00Небольшая облачность+15°C58 %751 мм3.1 м/с1 %
    06:00Ясно и безоблачно+12°C68 %751 мм2.6 м/с2 %
    09:00Ясно и безоблачно+20°C53 %752 мм2.4 м/с2 %
    12:00Ясно и безоблачно+23°C33 %752 мм3.1 м/с2 %
    15:00Ясно и безоблачно+24°C31 %752 мм2.9 м/с2 %
    18:00Ясно и безоблачно+24°C33 %751 мм3.1 м/с2 %
    21:00Ясно и безоблачно+19°C58 %751 мм2.2 м/с2 %
  • 27мая
    Понедельник
    +13°
    +26°
    Ясно и безоблачно
    ВремяПогодаТемператураВлажностьДавлениеВетер, м/сВероятность осадков
    00:00Ясно и безоблачно+16°C53 %751 мм1.7 м/с2 %
    03:00Ясно и безоблачно+16°C52 %751 мм1.4 м/с2 %
    06:00Ясно и безоблачно+14°C68 %751 мм2.0 м/с2 %
    09:00Ясно и безоблачно+20°C50 %751 мм2.0 м/с2 %
    12:00Ясно и безоблачно+24°C38 %751 мм3.0 м/с4 %
    15:00Ясно и безоблачно+26°C37 %750 мм3.0 м/с3 %
    18:00Ясно и безоблачно+25°C38 %749 мм2.8 м/с8 %
    21:00Ясно и безоблачно+21°C54 %749 мм2.4 м/с3 %
  • 28мая
    Вторник
    +14°
    +26°
    Ясно и безоблачно
    ВремяПогодаТемператураВлажностьДавлениеВетер, м/сВероятность осадков
    00:00Ясно и безоблачно+16°C63 %749 мм2.7 м/с2 %
    03:00Ясно и безоблачно+15°C67 %748 мм1.6 м/с2 %
    06:00Ясно и безоблачно+15°C79 %748 мм1.7 м/с2 %
    09:00Ясно и безоблачно+21°C53 %748 мм2.6 м/с2 %
    12:00Ясно и безоблачно+24°C34 %748 мм3.7 м/с3 %
    15:00Ясно и безоблачно+25°C35 %747 мм3.7 м/с13 %
    18:00Ясно и безоблачно+25°C32 %746 мм2.8 м/с26 %
    21:00Ясно и безоблачно+21°C54 %745 мм3.6 м/с7 %
  • 29мая
    Среда
    +13°
    +26°
    Облачно с прояснениями
    ВремяПогодаТемператураВлажностьДавлениеВетер, м/сВероятность осадков
    00:00Ясно и безоблачно+17°C79 %745 мм3.0 м/с2 %
    03:00Небольшая облачность+15°C88 %745 мм2.9 м/с2 %
    06:00Облачно с прояснениями+15°C85 %744 мм3.5 м/с2 %
    09:00Небольшая облачность+20°C66 %744 мм2.8 м/с5 %
    12:00Облачно с прояснениями+25°C36 %744 мм3.5 м/с7 %
    15:00Облачно с прояснениями+26°C29 %743 мм4.4 м/с26 %
    18:00Ясно и безоблачно+26°C31 %742 мм3.6 м/с29 %
    21:00Небольшая облачность+20°C55 %742 мм2.0 м/с14 %
Мы используем cookies
Соглашаюсь